sensor_id;sensor_type;location;lat;lon;timestamp;temperature;humidity
43338;DHT22;28933;52.492;13.434;2024-02-26T06:14:34;5.40;99.90
43338;DHT22;28933;52.492;13.434;2024-02-26T06:17:20;5.40;99.90
43338;DHT22;28933;52.492;13.434;2024-02-26T06:20:06;5.40;99.90
43338;DHT22;28933;52.492;13.434;2024-02-26T06:22:57;5.40;99.90
43338;DHT22;28933;52.492;13.434;2024-02-26T06:25:43;5.40;99.90
43338;DHT22;28933;52.492;13.434;2024-02-26T06:28:29;5.40;99.90
43338;DHT22;28933;52.492;13.434;2024-02-26T06:31:18;5.50;99.90
43338;DHT22;28933;52.492;13.434;2024-02-26T06:34:03;5.40;99.90
43338;DHT22;28933;52.492;13.434;2024-02-26T06:36:50;5.40;99.90
43338;DHT22;28933;52.492;13.434;2024-02-26T06:39:35;5.50;99.90
43338;DHT22;28933;52.492;13.434;2024-02-26T06:42:22;5.50;99.90
43338;DHT22;28933;52.492;13.434;2024-02-26T06:45:08;5.60;99.90
43338;DHT22;28933;52.492;13.434;2024-02-26T06:47:53;5.60;99.90
43338;DHT22;28933;52.492;13.434;2024-02-26T06:50:47;5.70;99.90
43338;DHT22;28933;52.492;13.434;2024-02-26T06:53:33;5.70;99.90
43338;DHT22;28933;52.492;13.434;2024-02-26T06:56:19;5.80;99.90
43338;DHT22;28933;52.492;13.434;2024-02-26T06:59:05;5.80;99.90
43338;DHT22;28933;52.492;13.434;2024-02-26T07:01:51;5.90;99.90
43338;DHT22;28933;52.492;13.434;2024-02-26T07:04:37;5.90;99.90
43338;DHT22;28933;52.492;13.434;2024-02-26T07:07:23;5.90;99.90
43338;DHT22;28933;52.492;13.434;2024-02-26T07:10:09;6.00;99.90
43338;DHT22;28933;52.492;13.434;2024-02-26T07:12:57;6.00;99.90
43338;DHT22;28933;52.492;13.434;2024-02-26T07:15:44;6.00;99.90
43338;DHT22;28933;52.492;13.434;2024-02-26T07:18:30;6.00;99.90
43338;DHT22;28933;52.492;13.434;2024-02-26T07:21:16;6.10;99.90
43338;DHT22;28933;52.492;13.434;2024-02-26T07:24:02;6.20;99.90
43338;DHT22;28933;52.492;13.434;2024-02-26T07:26:48;6.20;99.90
43338;DHT22;28933;52.492;13.434;2024-02-26T07:29:34;6.20;99.90
43338;DHT22;28933;52.492;13.434;2024-02-26T07:32:20;6.30;99.90
43338;DHT22;28933;52.492;13.434;2024-02-26T07:35:06;6.30;99.90
43338;DHT22;28933;52.492;13.434;2024-02-26T07:37:52;6.30;99.90
43338;DHT22;28933;52.492;13.434;2024-02-26T07:40:37;6.30;99.90
43338;DHT22;28933;52.492;13.434;2024-02-26T07:43:23;6.30;99.90
43338;DHT22;28933;52.492;13.434;2024-02-26T07:46:11;6.40;99.90
43338;DHT22;28933;52.492;13.434;2024-02-26T07:48:58;6.40;99.90
43338;DHT22;28933;52.492;13.434;2024-02-26T07:51:44;6.40;99.90
43338;DHT22;28933;52.492;13.434;2024-02-26T07:54:30;6.40;99.90
43338;DHT22;28933;52.492;13.434;2024-02-26T07:57:16;6.50;99.90
43338;DHT22;28933;52.492;13.434;2024-02-26T08:00:03;6.50;99.90
43338;DHT22;28933;52.492;13.434;2024-02-26T08:02:49;6.60;99.90
43338;DHT22;28933;52.492;13.434;2024-02-26T08:05:35;6.70;99.90
43338;DHT22;28933;52.492;13.434;2024-02-26T08:08:25;6.70;99.90
43338;DHT22;28933;52.492;13.434;2024-02-26T08:11:11;6.80;99.90
43338;DHT22;28933;52.492;13.434;2024-02-26T08:13:59;6.90;99.90
43338;DHT22;28933;52.492;13.434;2024-02-26T08:16:45;7.00;99.90
43338;DHT22;28933;52.492;13.434;2024-02-26T08:19:31;7.00;99.90
43338;DHT22;28933;52.492;13.434;2024-02-26T08:22:17;7.10;99.90
43338;DHT22;28933;52.492;13.434;2024-02-26T08:25:03;7.20;99.90
43338;DHT22;28933;52.492;13.434;2024-02-26T08:27:52;7.30;99.90
43338;DHT22;28933;52.492;13.434;2024-02-26T08:30:38;7.40;99.90
43338;DHT22;28933;52.492;13.434;2024-02-26T08:33:24;7.50;99.90
43338;DHT22;28933;52.492;13.434;2024-02-26T08:36:11;7.60;99.90
43338;DHT22;28933;52.492;13.434;2024-02-26T08:38:57;7.70;99.90
43338;DHT22;28933;52.492;13.434;2024-02-26T08:41:44;7.80;99.90
43338;DHT22;28933;52.492;13.434;2024-02-26T08:44:30;7.90;99.90
43338;DHT22;28933;52.492;13.434;2024-02-26T08:47:16;8.00;99.90
43338;DHT22;28933;52.492;13.434;2024-02-26T08:50:02;8.10;99.90
43338;DHT22;28933;52.492;13.434;2024-02-26T08:52:48;8.10;99.90
43338;DHT22;28933;52.492;13.434;2024-02-26T08:55:36;8.20;99.90
43338;DHT22;28933;52.492;13.434;2024-02-26T08:58:22;8.30;99.90
43338;DHT22;28933;52.492;13.434;2024-02-26T09:01:08;8.40;99.90
43338;DHT22;28933;52.492;13.434;2024-02-26T09:03:54;8.50;99.90
43338;DHT22;28933;52.492;13.434;2024-02-26T09:06:40;8.60;99.90
43338;DHT22;28933;52.492;13.434;2024-02-26T09:09:26;8.60;99.90
43338;DHT22;28933;52.492;13.434;2024-02-26T09:12:12;8.60;99.90
43338;DHT22;28933;52.492;13.434;2024-02-26T09:14:58;8.70;99.90
43338;DHT22;28933;52.492;13.434;2024-02-26T09:17:44;8.70;99.90
43338;DHT22;28933;52.492;13.434;2024-02-26T09:20:31;8.70;99.90
43338;DHT22;28933;52.492;13.434;2024-02-26T09:23:17;8.80;99.90
43338;DHT22;28933;52.492;13.434;2024-02-26T09:26:04;8.90;99.90
43338;DHT22;28933;52.492;13.434;2024-02-26T09:28:50;8.90;99.80
43338;DHT22;28933;52.492;13.434;2024-02-26T09:31:36;8.90;99.70
43338;DHT22;28933;52.492;13.434;2024-02-26T09:34:22;9.00;99.70
43338;DHT22;28933;52.492;13.434;2024-02-26T09:37:08;9.00;99.60
43338;DHT22;28933;52.492;13.434;2024-02-26T09:39:54;9.00;99.60
43338;DHT22;28933;52.492;13.434;2024-02-26T09:42:44;9.20;99.60
43338;DHT22;28933;52.492;13.434;2024-02-26T09:45:31;9.20;99.40
43338;DHT22;28933;52.492;13.434;2024-02-26T09:48:18;9.30;99.40
43338;DHT22;28933;52.492;13.434;2024-02-26T09:51:05;9.30;99.30
43338;DHT22;28933;52.492;13.434;2024-02-26T09:53:54;9.40;99.30
43338;DHT22;28933;52.492;13.434;2024-02-26T09:56:43;9.50;99.20
43338;DHT22;28933;52.492;13.434;2024-02-26T09:59:38;9.60;99.20
43338;DHT22;28933;52.492;13.434;2024-02-26T10:02:25;9.70;99.00
43338;DHT22;28933;52.492;13.434;2024-02-26T10:05:12;9.80;99.00
43338;DHT22;28933;52.492;13.434;2024-02-26T10:08:01;9.90;98.90
43338;DHT22;28933;52.492;13.434;2024-02-26T10:10:47;9.90;98.80
43338;DHT22;28933;52.492;13.434;2024-02-26T10:13:33;10.00;98.70
43338;DHT22;28933;52.492;13.434;2024-02-26T10:16:20;10.10;98.60
43338;DHT22;28933;52.492;13.434;2024-02-26T10:19:06;10.10;98.40
43338;DHT22;28933;52.492;13.434;2024-02-26T10:21:58;10.20;98.30
43338;DHT22;28933;52.492;13.434;2024-02-26T10:24:47;10.20;98.00
43338;DHT22;28933;52.492;13.434;2024-02-26T10:27:33;10.30;98.00
43338;DHT22;28933;52.492;13.434;2024-02-26T10:30:20;10.40;97.90
43338;DHT22;28933;52.492;13.434;2024-02-26T10:33:11;10.50;97.80
43338;DHT22;28933;52.492;13.434;2024-02-26T10:35:57;10.60;97.70
43338;DHT22;28933;52.492;13.434;2024-02-26T10:38:44;10.60;97.50
43338;DHT22;28933;52.492;13.434;2024-02-26T10:41:30;10.70;97.40
43338;DHT22;28933;52.492;13.434;2024-02-26T10:44:16;10.80;97.30
43338;DHT22;28933;52.492;13.434;2024-02-26T10:47:02;10.80;97.20
43338;DHT22;28933;52.492;13.434;2024-02-26T10:49:49;10.90;97.00
43338;DHT22;28933;52.492;13.434;2024-02-26T10:52:36;11.00;96.90
43338;DHT22;28933;52.492;13.434;2024-02-26T10:55:22;11.00;96.80
43338;DHT22;28933;52.492;13.434;2024-02-26T10:58:09;11.10;96.60
43338;DHT22;28933;52.492;13.434;2024-02-26T11:00:57;11.20;96.50
43338;DHT22;28933;52.492;13.434;2024-02-26T11:03:43;11.30;96.40
43338;DHT22;28933;52.492;13.434;2024-02-26T11:06:29;11.30;96.20
43338;DHT22;28933;52.492;13.434;2024-02-26T11:09:16;11.30;96.10
43338;DHT22;28933;52.492;13.434;2024-02-26T11:12:03;11.40;96.10
43338;DHT22;28933;52.492;13.434;2024-02-26T11:14:55;11.50;96.10
43338;DHT22;28933;52.492;13.434;2024-02-26T11:17:44;11.60;95.80
43338;DHT22;28933;52.492;13.434;2024-02-26T11:20:32;11.60;95.80
43338;DHT22;28933;52.492;13.434;2024-02-26T11:23:19;11.70;95.90
43338;DHT22;28933;52.492;13.434;2024-02-26T11:26:06;11.70;95.20
43338;DHT22;28933;52.492;13.434;2024-02-26T11:28:53;11.70;95.30
43338;DHT22;28933;52.492;13.434;2024-02-26T11:31:39;11.80;95.10
43338;DHT22;28933;52.492;13.434;2024-02-26T11:34:26;11.80;94.90
43338;DHT22;28933;52.492;13.434;2024-02-26T11:37:14;11.80;94.50
43338;DHT22;28933;52.492;13.434;2024-02-26T11:40:01;11.90;94.50
43338;DHT22;28933;52.492;13.434;2024-02-26T11:42:47;11.90;94.30
43338;DHT22;28933;52.492;13.434;2024-02-26T11:48:29;11.90;94.00
43338;DHT22;28933;52.492;13.434;2024-02-26T11:51:14;12.00;93.80
43338;DHT22;28933;52.492;13.434;2024-02-26T11:54:01;12.00;93.70
43338;DHT22;28933;52.492;13.434;2024-02-26T11:56:47;12.00;93.60
43338;DHT22;28933;52.492;13.434;2024-02-26T11:59:39;12.10;93.60
43338;DHT22;28933;52.492;13.434;2024-02-26T12:02:52;12.10;93.50
43338;DHT22;28933;52.492;13.434;2024-02-26T12:05:46;12.20;93.40
43338;DHT22;28933;52.492;13.434;2024-02-26T12:08:34;12.20;93.40
43338;DHT22;28933;52.492;13.434;2024-02-26T12:11:20;12.30;93.20
43338;DHT22;28933;52.492;13.434;2024-02-26T12:14:08;12.40;93.10
43338;DHT22;28933;52.492;13.434;2024-02-26T12:16:55;12.50;92.90
43338;DHT22;28933;52.492;13.434;2024-02-26T12:19:42;12.50;92.80
43338;DHT22;28933;52.492;13.434;2024-02-26T12:22:28;12.60;92.70
43338;DHT22;28933;52.492;13.434;2024-02-26T12:25:14;12.70;92.50
43338;DHT22;28933;52.492;13.434;2024-02-26T12:28:00;12.70;92.30
43338;DHT22;28933;52.492;13.434;2024-02-26T12:30:46;12.70;92.00
43338;DHT22;28933;52.492;13.434;2024-02-26T12:33:32;12.80;91.70
43338;DHT22;28933;52.492;13.434;2024-02-26T12:36:18;12.80;91.60
43338;DHT22;28933;52.492;13.434;2024-02-26T12:39:04;12.80;91.60
43338;DHT22;28933;52.492;13.434;2024-02-26T12:41:57;12.90;91.60
43338;DHT22;28933;52.492;13.434;2024-02-26T12:44:46;12.90;91.60
43338;DHT22;28933;52.492;13.434;2024-02-26T12:47:32;12.90;91.70
43338;DHT22;28933;52.492;13.434;2024-02-26T12:50:18;12.90;91.70
43338;DHT22;28933;52.492;13.434;2024-02-26T12:53:04;12.90;91.70
43338;DHT22;28933;52.492;13.434;2024-02-26T12:55:51;12.90;91.70
43338;DHT22;28933;52.492;13.434;2024-02-26T12:58:38;13.00;91.60
43338;DHT22;28933;52.492;13.434;2024-02-26T13:01:25;13.00;91.50
43338;DHT22;28933;52.492;13.434;2024-02-26T13:04:11;13.00;91.70
43338;DHT22;28933;52.492;13.434;2024-02-26T13:06:57;13.00;91.60
43338;DHT22;28933;52.492;13.434;2024-02-26T13:09:48;13.00;91.60
43338;DHT22;28933;52.492;13.434;2024-02-26T13:12:36;13.00;91.30
43338;DHT22;28933;52.492;13.434;2024-02-26T13:15:22;12.90;91.30
43338;DHT22;28933;52.492;13.434;2024-02-26T13:18:12;13.00;91.30
43338;DHT22;28933;52.492;13.434;2024-02-26T13:21:08;13.00;91.10
43338;DHT22;28933;52.492;13.434;2024-02-26T13:23:55;13.00;90.80
43338;DHT22;28933;52.492;13.434;2024-02-26T13:26:41;13.00;90.70
43338;DHT22;28933;52.492;13.434;2024-02-26T13:29:27;13.00;90.70
43338;DHT22;28933;52.492;13.434;2024-02-26T13:32:13;13.00;90.70
43338;DHT22;28933;52.492;13.434;2024-02-26T13:35:12;13.00;90.60
43338;DHT22;28933;52.492;13.434;2024-02-26T13:37:58;13.10;90.30
43338;DHT22;28933;52.492;13.434;2024-02-26T13:40:44;13.10;90.10
43338;DHT22;28933;52.492;13.434;2024-02-26T13:43:30;13.10;90.00
43338;DHT22;28933;52.492;13.434;2024-02-26T13:46:16;13.10;89.10
43338;DHT22;28933;52.492;13.434;2024-02-26T13:49:02;13.00;88.10
43338;DHT22;28933;52.492;13.434;2024-02-26T13:51:48;13.00;88.80
43338;DHT22;28933;52.492;13.434;2024-02-26T13:54:34;13.00;88.90
43338;DHT22;28933;52.492;13.434;2024-02-26T13:57:21;13.00;89.00
43338;DHT22;28933;52.492;13.434;2024-02-26T14:00:09;12.90;88.90
43338;DHT22;28933;52.492;13.434;2024-02-26T14:02:55;12.90;88.60
43338;DHT22;28933;52.492;13.434;2024-02-26T14:05:41;12.90;88.70
43338;DHT22;28933;52.492;13.434;2024-02-26T14:08:27;12.90;88.90
43338;DHT22;28933;52.492;13.434;2024-02-26T14:11:13;12.90;88.80
43338;DHT22;28933;52.492;13.434;2024-02-26T14:13:59;12.90;89.00
43338;DHT22;28933;52.492;13.434;2024-02-26T14:16:45;12.90;88.90
43338;DHT22;28933;52.492;13.434;2024-02-26T14:19:31;12.80;88.80
43338;DHT22;28933;52.492;13.434;2024-02-26T14:22:17;12.80;89.00
43338;DHT22;28933;52.492;13.434;2024-02-26T14:25:03;12.80;88.90
43338;DHT22;28933;52.492;13.434;2024-02-26T14:27:49;12.80;88.80
43338;DHT22;28933;52.492;13.434;2024-02-26T14:30:35;12.70;88.80
43338;DHT22;28933;52.492;13.434;2024-02-26T14:33:21;12.70;89.00
43338;DHT22;28933;52.492;13.434;2024-02-26T14:36:08;12.70;89.10
43338;DHT22;28933;52.492;13.434;2024-02-26T14:38:54;12.70;89.20
43338;DHT22;28933;52.492;13.434;2024-02-26T14:41:40;12.60;89.30
43338;DHT22;28933;52.492;13.434;2024-02-26T14:44:26;12.60;89.40
43338;DHT22;28933;52.492;13.434;2024-02-26T14:47:12;12.60;89.50
43338;DHT22;28933;52.492;13.434;2024-02-26T14:49:58;12.60;89.70
43338;DHT22;28933;52.492;13.434;2024-02-26T14:52:44;12.50;89.70
43338;DHT22;28933;52.492;13.434;2024-02-26T14:55:29;12.50;89.90
43338;DHT22;28933;52.492;13.434;2024-02-26T14:58:16;12.50;90.20
43338;DHT22;28933;52.492;13.434;2024-02-26T15:01:02;12.50;90.00
43338;DHT22;28933;52.492;13.434;2024-02-26T15:03:49;12.40;90.00
43338;DHT22;28933;52.492;13.434;2024-02-26T15:06:34;12.40;90.10
43338;DHT22;28933;52.492;13.434;2024-02-26T15:09:23;12.40;90.10
43338;DHT22;28933;52.492;13.434;2024-02-26T15:12:10;12.40;90.10
43338;DHT22;28933;52.492;13.434;2024-02-26T15:14:56;12.30;90.10
43338;DHT22;28933;52.492;13.434;2024-02-26T15:17:42;12.30;90.10
43338;DHT22;28933;52.492;13.434;2024-02-26T15:20:28;12.30;90.10
43338;DHT22;28933;52.492;13.434;2024-02-26T15:23:16;12.30;90.20
43338;DHT22;28933;52.492;13.434;2024-02-26T15:26:03;12.30;90.20
43338;DHT22;28933;52.492;13.434;2024-02-26T15:28:49;12.20;90.20
43338;DHT22;28933;52.492;13.434;2024-02-26T15:31:35;12.20;90.30
43338;DHT22;28933;52.492;13.434;2024-02-26T15:34:21;12.10;90.50
43338;DHT22;28933;52.492;13.434;2024-02-26T15:37:07;12.10;90.40
43338;DHT22;28933;52.492;13.434;2024-02-26T15:39:53;12.10;90.40
43338;DHT22;28933;52.492;13.434;2024-02-26T15:42:39;12.00;90.50
43338;DHT22;28933;52.492;13.434;2024-02-26T15:45:25;12.00;90.60
43338;DHT22;28933;52.492;13.434;2024-02-26T15:48:11;12.00;90.70
43338;DHT22;28933;52.492;13.434;2024-02-26T15:50:58;11.90;90.70
43338;DHT22;28933;52.492;13.434;2024-02-26T15:53:44;11.90;90.80
43338;DHT22;28933;52.492;13.434;2024-02-26T15:56:30;11.90;90.90
43338;DHT22;28933;52.492;13.434;2024-02-26T15:59:19;11.80;90.90
43338;DHT22;28933;52.492;13.434;2024-02-26T16:02:05;11.80;91.00
43338;DHT22;28933;52.492;13.434;2024-02-26T16:04:51;11.70;91.10
43338;DHT22;28933;52.492;13.434;2024-02-26T16:07:41;11.70;91.30
43338;DHT22;28933;52.492;13.434;2024-02-26T16:10:28;11.60;91.40
43338;DHT22;28933;52.492;13.434;2024-02-26T16:13:16;11.60;91.50
43338;DHT22;28933;52.492;13.434;2024-02-26T16:16:12;11.60;91.70
43338;DHT22;28933;52.492;13.434;2024-02-26T16:19:06;11.50;91.70
43338;DHT22;28933;52.492;13.434;2024-02-26T16:21:52;11.50;91.90
43338;DHT22;28933;52.492;13.434;2024-02-26T16:24:39;11.50;92.00
43338;DHT22;28933;52.492;13.434;2024-02-26T16:27:25;11.40;92.10
43338;DHT22;28933;52.492;13.434;2024-02-26T16:30:12;11.40;92.30
43338;DHT22;28933;52.492;13.434;2024-02-26T16:32:58;11.30;92.40
43338;DHT22;28933;52.492;13.434;2024-02-26T16:35:44;11.30;92.50
43338;DHT22;28933;52.492;13.434;2024-02-26T16:38:30;11.30;92.70
43338;DHT22;28933;52.492;13.434;2024-02-26T16:41:16;11.30;92.80
43338;DHT22;28933;52.492;13.434;2024-02-26T16:44:02;11.30;92.90
43338;DHT22;28933;52.492;13.434;2024-02-26T16:46:49;11.30;92.90
43338;DHT22;28933;52.492;13.434;2024-02-26T16:49:35;11.30;93.10
43338;DHT22;28933;52.492;13.434;2024-02-26T16:52:21;11.20;93.10
43338;DHT22;28933;52.492;13.434;2024-02-26T16:55:08;11.20;93.20
43338;DHT22;28933;52.492;13.434;2024-02-26T16:57:55;11.20;93.30
43338;DHT22;28933;52.492;13.434;2024-02-26T17:00:42;11.20;93.50
43338;DHT22;28933;52.492;13.434;2024-02-26T17:03:28;11.20;93.50
43338;DHT22;28933;52.492;13.434;2024-02-26T17:06:14;11.20;93.60
43338;DHT22;28933;52.492;13.434;2024-02-26T17:09:02;11.10;93.50
43338;DHT22;28933;52.492;13.434;2024-02-26T17:11:50;11.10;93.60
43338;DHT22;28933;52.492;13.434;2024-02-26T17:14:39;11.10;93.60
43338;DHT22;28933;52.492;13.434;2024-02-26T17:17:24;11.10;93.60
43338;DHT22;28933;52.492;13.434;2024-02-26T17:20:11;11.10;93.60
43338;DHT22;28933;52.492;13.434;2024-02-26T17:22:57;11.10;93.70
43338;DHT22;28933;52.492;13.434;2024-02-26T17:25:43;11.10;93.70
43338;DHT22;28933;52.492;13.434;2024-02-26T17:28:29;11.10;93.70
43338;DHT22;28933;52.492;13.434;2024-02-26T17:31:15;11.10;93.80
43338;DHT22;28933;52.492;13.434;2024-02-26T17:34:03;11.00;93.80
43338;DHT22;28933;52.492;13.434;2024-02-26T17:36:49;11.00;93.90
43338;DHT22;28933;52.492;13.434;2024-02-26T17:39:35;11.00;94.10
43338;DHT22;28933;52.492;13.434;2024-02-26T17:42:21;10.90;94.30
43338;DHT22;28933;52.492;13.434;2024-02-26T17:45:08;10.90;94.40
43338;DHT22;28933;52.492;13.434;2024-02-26T17:47:55;10.80;94.50
43338;DHT22;28933;52.492;13.434;2024-02-26T17:50:41;10.80;94.60
43338;DHT22;28933;52.492;13.434;2024-02-26T17:53:27;10.80;94.70
43338;DHT22;28933;52.492;13.434;2024-02-26T17:56:13;10.80;94.70
43338;DHT22;28933;52.492;13.434;2024-02-26T17:59:00;10.80;94.80
43338;DHT22;28933;52.492;13.434;2024-02-26T18:01:46;10.70;94.90
43338;DHT22;28933;52.492;13.434;2024-02-26T18:04:33;10.70;94.90
43338;DHT22;28933;52.492;13.434;2024-02-26T18:07:19;10.70;95.10
43338;DHT22;28933;52.492;13.434;2024-02-26T18:10:06;10.70;95.10
43338;DHT22;28933;52.492;13.434;2024-02-26T18:12:54;10.70;95.30
43338;DHT22;28933;52.492;13.434;2024-02-26T18:15:44;10.60;95.70
43338;DHT22;28933;52.492;13.434;2024-02-26T18:18:30;10.60;95.70
43338;DHT22;28933;52.492;13.434;2024-02-26T18:21:16;10.50;95.60
43338;DHT22;28933;52.492;13.434;2024-02-26T18:24:03;10.50;95.60
43338;DHT22;28933;52.492;13.434;2024-02-26T18:26:50;10.40;95.80
43338;DHT22;28933;52.492;13.434;2024-02-26T18:29:38;10.40;95.90
43338;DHT22;28933;52.492;13.434;2024-02-26T18:32:23;10.30;95.80
43338;DHT22;28933;52.492;13.434;2024-02-26T18:35:10;10.30;96.00
43338;DHT22;28933;52.492;13.434;2024-02-26T18:37:56;10.30;96.20
43338;DHT22;28933;52.492;13.434;2024-02-26T18:40:42;10.20;96.10
43338;DHT22;28933;52.492;13.434;2024-02-26T18:43:28;10.20;96.10
43338;DHT22;28933;52.492;13.434;2024-02-26T18:46:15;10.20;96.20
43338;DHT22;28933;52.492;13.434;2024-02-26T18:49:01;10.10;96.50
43338;DHT22;28933;52.492;13.434;2024-02-26T18:51:47;10.00;96.40
43338;DHT22;28933;52.492;13.434;2024-02-26T18:54:34;10.00;96.40
43338;DHT22;28933;52.492;13.434;2024-02-26T18:57:20;10.00;96.40
43338;DHT22;28933;52.492;13.434;2024-02-26T19:00:07;9.90;96.40
43338;DHT22;28933;52.492;13.434;2024-02-26T19:02:54;9.90;96.50
43338;DHT22;28933;52.492;13.434;2024-02-26T19:05:40;9.90;96.40
43338;DHT22;28933;52.492;13.434;2024-02-26T19:08:26;9.90;96.50
43338;DHT22;28933;52.492;13.434;2024-02-26T19:11:12;9.80;96.70
43338;DHT22;28933;52.492;13.434;2024-02-26T19:13:58;9.80;96.50
43338;DHT22;28933;52.492;13.434;2024-02-26T19:16:44;9.80;96.60
43338;DHT22;28933;52.492;13.434;2024-02-26T19:19:30;9.80;96.50
43338;DHT22;28933;52.492;13.434;2024-02-26T19:22:16;9.70;96.70
43338;DHT22;28933;52.492;13.434;2024-02-26T19:25:02;9.70;96.60
43338;DHT22;28933;52.492;13.434;2024-02-26T19:27:48;9.70;96.60
43338;DHT22;28933;52.492;13.434;2024-02-26T19:30:34;9.60;96.70
43338;DHT22;28933;52.492;13.434;2024-02-26T19:33:20;9.60;96.60
43338;DHT22;28933;52.492;13.434;2024-02-26T19:36:07;9.60;96.70
43338;DHT22;28933;52.492;13.434;2024-02-26T19:38:53;9.50;96.70
43338;DHT22;28933;52.492;13.434;2024-02-26T19:41:39;9.50;96.80
43338;DHT22;28933;52.492;13.434;2024-02-26T19:44:25;9.50;96.80
43338;DHT22;28933;52.492;13.434;2024-02-26T19:47:11;9.40;96.90
43338;DHT22;28933;52.492;13.434;2024-02-26T19:49:57;9.40;96.80
43338;DHT22;28933;52.492;13.434;2024-02-26T19:52:43;9.40;96.80
43338;DHT22;28933;52.492;13.434;2024-02-26T19:55:29;9.40;96.90
43338;DHT22;28933;52.492;13.434;2024-02-26T19:58:15;9.30;96.90
43338;DHT22;28933;52.492;13.434;2024-02-26T20:01:01;9.30;97.00
43338;DHT22;28933;52.492;13.434;2024-02-26T20:03:47;9.20;96.90
43338;DHT22;28933;52.492;13.434;2024-02-26T20:06:33;9.20;96.90
43338;DHT22;28933;52.492;13.434;2024-02-26T20:09:19;9.20;97.00
43338;DHT22;28933;52.492;13.434;2024-02-26T20:12:07;9.10;97.10
43338;DHT22;28933;52.492;13.434;2024-02-26T20:14:53;9.10;97.10
43338;DHT22;28933;52.492;13.434;2024-02-26T20:17:39;9.00;97.50
43338;DHT22;28933;52.492;13.434;2024-02-26T20:20:25;9.00;97.20
43338;DHT22;28933;52.492;13.434;2024-02-26T20:23:14;8.90;97.20
43338;DHT22;28933;52.492;13.434;2024-02-26T20:26:00;8.90;97.20
43338;DHT22;28933;52.492;13.434;2024-02-26T20:28:47;8.90;97.20
43338;DHT22;28933;52.492;13.434;2024-02-26T20:31:33;8.90;97.20
43338;DHT22;28933;52.492;13.434;2024-02-26T20:34:18;8.90;97.30
43338;DHT22;28933;52.492;13.434;2024-02-26T20:37:05;8.80;97.30
43338;DHT22;28933;52.492;13.434;2024-02-26T20:39:50;8.80;97.30
43338;DHT22;28933;52.492;13.434;2024-02-26T20:42:36;8.80;97.30
43338;DHT22;28933;52.492;13.434;2024-02-26T20:45:22;8.70;97.30
43338;DHT22;28933;52.492;13.434;2024-02-26T20:48:10;8.70;97.40
43338;DHT22;28933;52.492;13.434;2024-02-26T20:50:56;8.60;97.60
43338;DHT22;28933;52.492;13.434;2024-02-26T20:53:42;8.60;97.50
43338;DHT22;28933;52.492;13.434;2024-02-26T20:56:28;8.60;97.50
43338;DHT22;28933;52.492;13.434;2024-02-26T20:59:14;8.60;97.40
43338;DHT22;28933;52.492;13.434;2024-02-26T21:02:01;8.70;97.40
43338;DHT22;28933;52.492;13.434;2024-02-26T21:04:47;8.60;97.40
43338;DHT22;28933;52.492;13.434;2024-02-26T21:07:33;8.60;97.40
43338;DHT22;28933;52.492;13.434;2024-02-26T21:10:19;8.60;97.50
43338;DHT22;28933;52.492;13.434;2024-02-26T21:13:07;8.60;97.50
43338;DHT22;28933;52.492;13.434;2024-02-26T21:15:53;8.60;97.50
43338;DHT22;28933;52.492;13.434;2024-02-26T21:18:39;8.60;97.60
43338;DHT22;28933;52.492;13.434;2024-02-26T21:21:25;8.50;97.50
43338;DHT22;28933;52.492;13.434;2024-02-26T21:24:13;8.50;97.50
43338;DHT22;28933;52.492;13.434;2024-02-26T21:26:59;8.50;97.50
43338;DHT22;28933;52.492;13.434;2024-02-26T21:29:45;8.50;97.50
43338;DHT22;28933;52.492;13.434;2024-02-26T21:32:31;8.50;97.50
43338;DHT22;28933;52.492;13.434;2024-02-26T21:35:19;8.50;97.50
43338;DHT22;28933;52.492;13.434;2024-02-26T21:38:05;8.50;97.40
43338;DHT22;28933;52.492;13.434;2024-02-26T21:40:51;8.50;97.50
43338;DHT22;28933;52.492;13.434;2024-02-26T21:43:37;8.40;97.40
43338;DHT22;28933;52.492;13.434;2024-02-26T21:46:23;8.40;97.40
43338;DHT22;28933;52.492;13.434;2024-02-26T21:49:10;8.40;97.50
43338;DHT22;28933;52.492;13.434;2024-02-26T21:51:56;8.40;97.70
43338;DHT22;28933;52.492;13.434;2024-02-26T21:54:49;8.30;97.50
43338;DHT22;28933;52.492;13.434;2024-02-26T21:57:35;8.30;97.50
43338;DHT22;28933;52.492;13.434;2024-02-26T22:00:21;8.30;97.50
43338;DHT22;28933;52.492;13.434;2024-02-26T22:03:07;8.30;97.70
43338;DHT22;28933;52.492;13.434;2024-02-26T22:05:53;8.20;97.60
43338;DHT22;28933;52.492;13.434;2024-02-26T22:08:39;8.20;97.60
43338;DHT22;28933;52.492;13.434;2024-02-26T22:11:26;8.20;97.60
43338;DHT22;28933;52.492;13.434;2024-02-26T22:14:12;8.20;97.60
43338;DHT22;28933;52.492;13.434;2024-02-26T22:16:58;8.10;97.70
43338;DHT22;28933;52.492;13.434;2024-02-26T22:19:44;8.10;97.70
43338;DHT22;28933;52.492;13.434;2024-02-26T22:22:30;8.10;97.70
43338;DHT22;28933;52.492;13.434;2024-02-26T22:25:16;8.10;97.70
43338;DHT22;28933;52.492;13.434;2024-02-26T22:28:03;8.00;97.80
43338;DHT22;28933;52.492;13.434;2024-02-26T22:30:49;8.00;97.90
43338;DHT22;28933;52.492;13.434;2024-02-26T22:33:35;8.00;97.90
43338;DHT22;28933;52.492;13.434;2024-02-26T22:36:21;8.00;97.90
43338;DHT22;28933;52.492;13.434;2024-02-26T22:39:07;7.90;97.80
43338;DHT22;28933;52.492;13.434;2024-02-26T22:41:54;8.00;97.90
43338;DHT22;28933;52.492;13.434;2024-02-26T22:44:40;7.90;98.00
43338;DHT22;28933;52.492;13.434;2024-02-26T22:47:26;7.90;98.00
43338;DHT22;28933;52.492;13.434;2024-02-26T22:50:12;7.90;98.00
43338;DHT22;28933;52.492;13.434;2024-02-26T22:52:58;7.90;98.00
43338;DHT22;28933;52.492;13.434;2024-02-26T22:55:44;7.90;98.00
43338;DHT22;28933;52.492;13.434;2024-02-26T22:58:35;7.90;98.00
43338;DHT22;28933;52.492;13.434;2024-02-26T23:01:22;7.90;97.90
43338;DHT22;28933;52.492;13.434;2024-02-26T23:04:09;7.80;98.00
43338;DHT22;28933;52.492;13.434;2024-02-26T23:06:55;7.80;98.00
43338;DHT22;28933;52.492;13.434;2024-02-26T23:09:41;7.70;98.20
43338;DHT22;28933;52.492;13.434;2024-02-26T23:12:27;7.70;98.20
43338;DHT22;28933;52.492;13.434;2024-02-26T23:15:14;7.60;98.20
43338;DHT22;28933;52.492;13.434;2024-02-26T23:18:00;7.60;98.40
43338;DHT22;28933;52.492;13.434;2024-02-26T23:20:46;7.60;98.20
43338;DHT22;28933;52.492;13.434;2024-02-26T23:23:32;7.60;98.20
43338;DHT22;28933;52.492;13.434;2024-02-26T23:26:18;7.60;98.20
43338;DHT22;28933;52.492;13.434;2024-02-26T23:29:04;7.60;98.20
43338;DHT22;28933;52.492;13.434;2024-02-26T23:31:50;7.60;98.30
43338;DHT22;28933;52.492;13.434;2024-02-26T23:34:37;7.60;98.30
43338;DHT22;28933;52.492;13.434;2024-02-26T23:37:23;7.50;98.30
43338;DHT22;28933;52.492;13.434;2024-02-26T23:40:09;7.50;98.30